createdAt,value
2022-11-02T00:00:42.102Z,1003.11
2022-11-02T00:01:42.158Z,1003.17
2022-11-02T00:02:42.097Z,1003.14
2022-11-02T00:03:42.072Z,1003.15
2022-11-02T00:04:42.057Z,1003.04
2022-11-02T00:05:42.052Z,1003.10
2022-11-02T00:06:42.031Z,1003.09
2022-11-02T00:07:42.021Z,1003.04
2022-11-02T00:08:42.030Z,1003.07
2022-11-02T00:09:41.991Z,1003.15
2022-11-02T00:10:41.982Z,1003.07
2022-11-02T00:11:41.970Z,1003.11
2022-11-02T00:12:41.960Z,1003.08
2022-11-02T00:13:41.940Z,1003.07
2022-11-02T00:14:41.950Z,1003.04
2022-11-02T00:15:41.941Z,1003.09
2022-11-02T00:16:41.918Z,1003.08
2022-11-02T00:17:41.902Z,1003.08
2022-11-02T00:18:41.892Z,1003.13
2022-11-02T00:19:41.910Z,1003.10
2022-11-02T00:20:41.870Z,1003.07
2022-11-02T00:21:41.858Z,1003.05
2022-11-02T00:22:41.851Z,1003.05
2022-11-02T00:23:41.831Z,1003.03
2022-11-02T00:24:41.830Z,1003.09
2022-11-02T00:25:41.850Z,1003.07
2022-11-02T00:26:41.804Z,1003.08
2022-11-02T00:27:41.814Z,1003.08
2022-11-02T00:28:41.826Z,1003.09
2022-11-02T00:29:41.761Z,1003.08
2022-11-02T00:30:41.759Z,1003.06
2022-11-02T00:31:41.782Z,1003.07
2022-11-02T00:32:41.741Z,1003.06
2022-11-02T00:33:41.722Z,1003.11
2022-11-02T00:34:41.714Z,1003.09
2022-11-02T00:35:41.712Z,1003.03
2022-11-02T00:36:41.691Z,1003.06
2022-11-02T00:37:41.690Z,1003.02
2022-11-02T00:38:41.661Z,1003.04
2022-11-02T00:39:41.679Z,1003.04
2022-11-02T00:40:41.640Z,1003.06
2022-11-02T00:41:41.629Z,1002.96
2022-11-02T00:42:41.642Z,1002.97
2022-11-02T00:43:41.608Z,1002.97
2022-11-02T00:44:41.598Z,1002.95
2022-11-02T00:45:41.601Z,1002.93
2022-11-02T00:46:41.570Z,1002.97
2022-11-02T00:47:41.561Z,1002.95
2022-11-02T00:48:41.679Z,1002.92
2022-11-02T00:49:41.534Z,1002.91
2022-11-02T00:50:41.531Z,1002.93
2022-11-02T00:51:41.510Z,1002.91
2022-11-02T00:52:41.501Z,1002.88
2022-11-02T00:53:41.491Z,1002.85
2022-11-02T00:54:41.500Z,1002.89
2022-11-02T00:55:41.479Z,1002.84
2022-11-02T00:56:41.460Z,1002.83
2022-11-02T00:57:41.440Z,1002.84
2022-11-02T00:58:41.441Z,1002.85
2022-11-02T00:59:41.419Z,1002.74
2022-11-02T01:00:41.430Z,1002.75
2022-11-02T01:01:41.511Z,1002.79
2022-11-02T01:02:41.467Z,1002.74
2022-11-02T01:03:41.371Z,1002.73
2022-11-02T01:04:41.370Z,1002.72
2022-11-02T01:05:41.370Z,1002.71
2022-11-02T01:06:41.360Z,1002.74
2022-11-02T01:07:41.329Z,1002.78
2022-11-02T01:08:41.328Z,1002.76
2022-11-02T01:09:41.308Z,1002.79
2022-11-02T01:10:44.092Z,1002.73
2022-11-02T01:11:42.310Z,1002.71
2022-11-02T01:12:41.278Z,1002.72
2022-11-02T01:13:41.260Z,1002.80
2022-11-02T01:14:41.252Z,1002.69
2022-11-02T01:15:41.250Z,1002.74
2022-11-02T01:16:41.291Z,1002.74
2022-11-02T01:17:41.239Z,1002.69
2022-11-02T01:18:41.208Z,1002.69
2022-11-02T01:19:41.190Z,1002.66
2022-11-02T01:20:41.187Z,1002.65
2022-11-02T01:21:41.170Z,1002.71
2022-11-02T01:22:41.160Z,1002.66
2022-11-02T01:23:41.161Z,1002.67
2022-11-02T01:24:41.143Z,1002.65
2022-11-02T01:25:41.141Z,1002.73
2022-11-02T01:26:41.110Z,1002.72
2022-11-02T01:27:41.101Z,1002.72
2022-11-02T01:28:41.118Z,1002.72
2022-11-02T01:29:41.080Z,1002.73
2022-11-02T01:30:41.073Z,1002.74
2022-11-02T01:31:41.050Z,1002.74
2022-11-02T01:32:41.048Z,1002.68
2022-11-02T01:33:41.030Z,1002.68
2022-11-02T01:34:41.050Z,1002.73
2022-11-02T01:35:41.021Z,1002.71
2022-11-02T01:36:41.000Z,1002.72
2022-11-02T01:37:40.979Z,1002.72
2022-11-02T01:38:40.979Z,1002.70
2022-11-02T01:39:40.962Z,1002.67
2022-11-02T01:40:40.980Z,1002.56
2022-11-02T01:41:40.941Z,1002.60
2022-11-02T01:42:40.939Z,1002.58
2022-11-02T01:43:40.918Z,1002.60
2022-11-02T01:44:40.910Z,1002.57
2022-11-02T01:45:40.910Z,1002.63
2022-11-02T01:46:40.899Z,1002.56
2022-11-02T01:47:40.871Z,1002.55
2022-11-02T01:48:40.861Z,1002.49
2022-11-02T01:49:40.851Z,1002.51
2022-11-02T01:50:40.840Z,1002.51
2022-11-02T01:51:40.849Z,1002.53
2022-11-02T01:52:40.820Z,1002.47
2022-11-02T01:53:40.800Z,1002.45
2022-11-02T01:54:40.797Z,1002.40
2022-11-02T01:55:40.791Z,1002.43
2022-11-02T01:56:40.772Z,1002.45
2022-11-02T01:57:40.785Z,1002.39
2022-11-02T01:58:40.750Z,1002.37
2022-11-02T01:59:40.738Z,1002.32
2022-11-02T02:00:40.720Z,1002.36
2022-11-02T02:01:40.774Z,1002.32
2022-11-02T02:02:40.801Z,1002.30
2022-11-02T02:03:40.710Z,1002.33
2022-11-02T02:04:40.680Z,1002.34
2022-11-02T02:05:40.680Z,1002.30
2022-11-02T02:06:40.659Z,1002.30
2022-11-02T02:07:40.643Z,1002.33
2022-11-02T02:08:40.630Z,1002.37
2022-11-02T02:09:40.677Z,1002.35
2022-11-02T02:10:40.601Z,1002.31
2022-11-02T02:11:40.600Z,1002.29
2022-11-02T02:12:40.589Z,1002.31
2022-11-02T02:13:40.579Z,1002.28
2022-11-02T02:14:40.589Z,1002.21
2022-11-02T02:15:40.569Z,1002.23
2022-11-02T02:16:40.588Z,1002.15
2022-11-02T02:17:40.531Z,1002.16
2022-11-02T02:18:40.510Z,1002.11
2022-11-02T02:19:40.512Z,1002.05
2022-11-02T02:20:40.521Z,1002.05
2022-11-02T02:21:40.479Z,1001.99
2022-11-02T02:22:40.470Z,1001.97
2022-11-02T02:23:40.460Z,1001.98
2022-11-02T02:24:40.450Z,1001.87
2022-11-02T02:25:40.460Z,1001.85
2022-11-02T02:26:40.459Z,1001.95
2022-11-02T02:27:40.418Z,1001.92
2022-11-02T02:28:40.400Z,1001.92
2022-11-02T02:29:40.391Z,1001.93
2022-11-02T02:30:40.383Z,1001.90
2022-11-02T02:31:40.370Z,1001.98
2022-11-02T02:32:40.377Z,1001.96
2022-11-02T02:33:40.349Z,1001.92
2022-11-02T02:34:40.330Z,1001.91
2022-11-02T02:35:40.480Z,1001.85
2022-11-02T02:36:40.336Z,1001.88
2022-11-02T02:37:40.299Z,1001.88
2022-11-02T02:38:40.309Z,1001.94
2022-11-02T02:39:40.279Z,1001.88
2022-11-02T02:40:40.268Z,1001.81
2022-11-02T02:41:40.258Z,1001.79
2022-11-02T02:42:40.240Z,1001.79
2022-11-02T02:43:40.230Z,1001.80
2022-11-02T02:44:40.229Z,1001.86
2022-11-02T02:45:40.353Z,1001.83
2022-11-02T02:46:42.642Z,1001.86
2022-11-02T02:47:40.189Z,1001.84
2022-11-02T02:48:40.170Z,1001.87
2022-11-02T02:49:40.189Z,1001.91
2022-11-02T02:50:40.180Z,1001.93
2022-11-02T02:51:40.140Z,1001.85
2022-11-02T02:52:40.127Z,1001.94
2022-11-02T02:53:40.120Z,1002.00
2022-11-02T02:54:40.109Z,1002.00
2022-11-02T02:55:40.126Z,1002.00
2022-11-02T02:56:40.131Z,1001.99
2022-11-02T02:57:40.069Z,1001.96
2022-11-02T02:58:40.059Z,1001.94
2022-11-02T02:59:40.049Z,1001.92
2022-11-02T03:00:40.050Z,1001.95
2022-11-02T03:01:40.129Z,1001.90
2022-11-02T03:02:40.062Z,1001.91
2022-11-02T03:03:39.999Z,1001.93
2022-11-02T03:04:39.988Z,1001.86
2022-11-02T03:05:39.990Z,1001.86
2022-11-02T03:06:39.979Z,1001.91
2022-11-02T03:07:39.959Z,1002.01
2022-11-02T03:08:39.948Z,1002.01
2022-11-02T03:09:39.938Z,1002.10
2022-11-02T03:10:39.919Z,1002.08
2022-11-02T03:11:39.930Z,1002.14
2022-11-02T03:12:39.899Z,1002.12
2022-11-02T03:13:39.888Z,1002.17
2022-11-02T03:14:39.870Z,1002.08
2022-11-02T03:15:39.879Z,1002.13
2022-11-02T03:16:39.850Z,1002.12
2022-11-02T03:17:39.859Z,1002.11
2022-11-02T03:18:39.829Z,1002.08
2022-11-02T03:19:39.819Z,1002.12
2022-11-02T03:20:39.808Z,1002.03
2022-11-02T03:21:39.799Z,1002.05
2022-11-02T03:22:39.828Z,1002.08
2022-11-02T03:23:39.769Z,1002.03
2022-11-02T03:24:39.759Z,1002.00
2022-11-02T03:25:39.764Z,1002.02
2022-11-02T03:26:39.736Z,1002.11
2022-11-02T03:27:39.737Z,1002.10
2022-11-02T03:28:39.729Z,1002.09
2022-11-02T03:29:39.708Z,1002.06
2022-11-02T03:30:39.689Z,1002.03
2022-11-02T03:31:39.679Z,1002.04
2022-11-02T03:32:39.667Z,1001.98
2022-11-02T03:33:39.682Z,1002.04
2022-11-02T03:34:39.639Z,1002.06
2022-11-02T03:35:39.649Z,1002.12
2022-11-02T03:36:39.624Z,1002.11
2022-11-02T03:37:39.610Z,1002.11
2022-11-02T03:38:39.599Z,1002.14
2022-11-02T03:39:39.609Z,1002.14
2022-11-02T03:40:39.577Z,1002.14
2022-11-02T03:41:39.579Z,1002.21
2022-11-02T03:42:39.550Z,1002.14
2022-11-02T03:43:39.547Z,1002.19
2022-11-02T03:44:39.549Z,1002.21
2022-11-02T03:45:39.530Z,1002.18
2022-11-02T03:46:39.499Z,1002.20
2022-11-02T03:47:39.500Z,1002.18
2022-11-02T03:48:39.489Z,1002.21
2022-11-02T03:49:39.478Z,1002.12
2022-11-02T03:50:39.491Z,1002.08
2022-11-02T03:51:39.450Z,1002.12
2022-11-02T03:52:39.439Z,1002.17
2022-11-02T03:53:39.429Z,1002.20
2022-11-02T03:54:39.422Z,1002.29
2022-11-02T03:55:39.419Z,1002.31
2022-11-02T03:56:39.414Z,1002.32
2022-11-02T03:57:39.381Z,1002.31
2022-11-02T03:58:39.379Z,1002.30
2022-11-02T03:59:39.360Z,1002.32
2022-11-02T04:00:39.350Z,1002.31
2022-11-02T04:01:39.401Z,1002.33
2022-11-02T04:02:39.408Z,1002.38
2022-11-02T04:03:39.319Z,1002.29
2022-11-02T04:04:39.301Z,1002.21
2022-11-02T04:05:39.322Z,1002.22
2022-11-02T04:06:39.281Z,1002.22
2022-11-02T04:07:39.290Z,1002.29
2022-11-02T04:08:39.250Z,1002.33
2022-11-02T04:09:39.248Z,1002.34
2022-11-02T04:10:39.230Z,1002.26
2022-11-02T04:11:39.228Z,1002.31
2022-11-02T04:12:39.211Z,1002.36
2022-11-02T04:13:39.222Z,1002.34
2022-11-02T04:14:39.191Z,1002.34
2022-11-02T04:15:39.192Z,1002.40
2022-11-02T04:16:39.174Z,1002.46
2022-11-02T04:17:39.160Z,1002.44
2022-11-02T04:18:39.169Z,1002.43
2022-11-02T04:19:39.130Z,1002.44
2022-11-02T04:20:39.121Z,1002.45
2022-11-02T04:21:39.110Z,1002.50
2022-11-02T04:22:39.105Z,1002.46
2022-11-02T04:23:39.091Z,1002.47
2022-11-02T04:24:39.119Z,1002.44
2022-11-02T04:25:39.073Z,1002.44
2022-11-02T04:26:39.051Z,1002.49
2022-11-02T04:27:39.044Z,1002.56
2022-11-02T04:28:39.020Z,1002.52
2022-11-02T04:29:39.019Z,1002.51
2022-11-02T04:30:39.020Z,1002.56
2022-11-02T04:31:38.998Z,1002.58
2022-11-02T04:32:38.980Z,1002.56
2022-11-02T04:33:38.973Z,1002.61
2022-11-02T04:34:38.959Z,1002.55
2022-11-02T04:35:38.960Z,1002.51
2022-11-02T04:36:38.961Z,1002.62
2022-11-02T04:37:38.934Z,1002.65
2022-11-02T04:38:38.911Z,1002.61
2022-11-02T04:39:38.909Z,1002.62
2022-11-02T04:40:38.890Z,1002.61
2022-11-02T04:41:38.880Z,1002.63
2022-11-02T04:42:38.880Z,1002.62
2022-11-02T04:43:38.859Z,1002.67
2022-11-02T04:44:38.841Z,1002.68
2022-11-02T04:45:38.849Z,1002.58
2022-11-02T04:46:38.820Z,1002.60
2022-11-02T04:47:38.841Z,1002.57
2022-11-02T04:48:38.804Z,1002.59
2022-11-02T04:49:38.798Z,1002.66
2022-11-02T04:50:38.778Z,1002.69
2022-11-02T04:51:38.762Z,1002.67
2022-11-02T04:52:38.764Z,1002.62
2022-11-02T04:53:38.767Z,1002.63
2022-11-02T04:54:38.734Z,1002.68
2022-11-02T04:55:38.731Z,1002.68
2022-11-02T04:56:38.712Z,1002.71
2022-11-02T04:57:38.771Z,1002.75
2022-11-02T04:58:38.707Z,1002.74
2022-11-02T04:59:38.678Z,1002.74
2022-11-02T05:00:38.660Z,1002.75
2022-11-02T05:01:38.734Z,1002.75
2022-11-02T05:02:38.712Z,1002.74
2022-11-02T05:03:38.631Z,1002.73
2022-11-02T05:04:38.632Z,1002.83
2022-11-02T05:05:38.615Z,1002.82
2022-11-02T05:06:38.591Z,1002.82
2022-11-02T05:07:38.582Z,1002.78
2022-11-02T05:08:38.571Z,1002.74
2022-11-02T05:09:38.590Z,1002.82
2022-11-02T05:10:38.547Z,1002.81
2022-11-02T05:11:38.540Z,1002.86
2022-11-02T05:12:38.521Z,1002.82
2022-11-02T05:13:38.510Z,1002.85
2022-11-02T05:14:38.500Z,1002.93
2022-11-02T05:15:38.529Z,1002.93
2022-11-02T05:16:38.470Z,1002.93
2022-11-02T05:17:38.469Z,1002.91
2022-11-02T05:18:38.451Z,1002.94
2022-11-02T05:19:38.440Z,1002.98
2022-11-02T05:20:38.430Z,1002.96
2022-11-02T05:21:38.451Z,1002.90
2022-11-02T05:22:38.400Z,1002.94
2022-11-02T05:23:38.400Z,1003.02
2022-11-02T05:24:38.384Z,1002.94
2022-11-02T05:25:38.388Z,1003.00
2022-11-02T05:26:38.361Z,1003.04
2022-11-02T05:27:38.400Z,1002.99
2022-11-02T05:28:38.340Z,1003.08
2022-11-02T05:29:38.331Z,1003.02
2022-11-02T05:30:38.319Z,1003.00
2022-11-02T05:31:38.303Z,1003.01
2022-11-02T05:32:38.290Z,1003.08
2022-11-02T05:33:38.300Z,1003.06
2022-11-02T05:34:38.270Z,1003.05
2022-11-02T05:35:38.287Z,1003.06
2022-11-02T05:36:38.251Z,1003.04
2022-11-02T05:37:45.287Z,1003.02
2022-11-02T05:39:38.217Z,1002.99
2022-11-02T05:40:38.208Z,1002.94
2022-11-02T05:41:38.198Z,1003.01
2022-11-02T05:42:38.187Z,1003.03
2022-11-02T05:43:38.168Z,1003.02
2022-11-02T05:44:38.177Z,1003.02
2022-11-02T05:45:38.147Z,1003.00
2022-11-02T05:46:38.128Z,1003.10
2022-11-02T05:47:38.127Z,1003.10
2022-11-02T05:48:38.107Z,1003.09
2022-11-02T05:49:38.105Z,1003.08
2022-11-02T05:50:38.107Z,1003.08
2022-11-02T05:51:38.079Z,1003.10
2022-11-02T05:52:38.066Z,1003.19
2022-11-02T05:53:38.056Z,1003.17
2022-11-02T05:54:38.039Z,1003.21
2022-11-02T05:55:38.035Z,1003.25
2022-11-02T05:56:38.028Z,1003.18
2022-11-02T05:57:38.009Z,1003.21
2022-11-02T05:58:38.010Z,1003.20
2022-11-02T05:59:37.989Z,1003.14
2022-11-02T06:00:37.967Z,1003.20
2022-11-02T06:01:38.075Z,1003.17
2022-11-02T06:02:37.971Z,1003.22
2022-11-02T06:03:37.967Z,1003.25
2022-11-02T06:04:37.916Z,1003.22
2022-11-02T06:05:37.977Z,1003.19
2022-11-02T06:06:37.897Z,1003.21
2022-11-02T06:07:37.915Z,1003.26
2022-11-02T06:08:37.877Z,1003.23
2022-11-02T06:09:37.867Z,1003.33
2022-11-02T06:10:37.857Z,1003.26
2022-11-02T06:11:37.857Z,1003.27
2022-11-02T06:12:37.836Z,1003.29
2022-11-02T06:13:37.849Z,1003.29
2022-11-02T06:14:37.807Z,1003.30
2022-11-02T06:15:37.807Z,1003.34
2022-11-02T06:16:37.788Z,1003.25
2022-11-02T06:17:37.787Z,1003.27
2022-11-02T06:18:37.765Z,1003.29
2022-11-02T06:19:37.777Z,1003.40
2022-11-02T06:20:37.738Z,1003.28
2022-11-02T06:21:37.735Z,1003.33
2022-11-02T06:22:37.736Z,1003.34
2022-11-02T06:23:37.707Z,1003.33
2022-11-02T06:24:37.698Z,1003.40
2022-11-02T06:25:37.706Z,1003.37
2022-11-02T06:26:37.678Z,1003.48
2022-11-02T06:27:39.946Z,1003.45
2022-11-02T06:28:38.656Z,1003.50
2022-11-02T06:29:37.636Z,1003.55
2022-11-02T06:30:37.635Z,1003.58
2022-11-02T06:31:37.657Z,1003.64
2022-11-02T06:32:37.606Z,1003.66
2022-11-02T06:33:37.597Z,1003.60
2022-11-02T06:34:37.577Z,1003.61
2022-11-02T06:35:37.567Z,1003.69
2022-11-02T06:36:37.653Z,1003.73
2022-11-02T06:37:37.556Z,1003.70
2022-11-02T06:38:37.537Z,1003.69
2022-11-02T06:40:37.507Z,1003.81
2022-11-02T06:41:37.497Z,1003.84
2022-11-02T06:42:44.949Z,1003.84
2022-11-02T06:43:38.560Z,1003.90
2022-11-02T06:44:37.469Z,1003.93
2022-11-02T06:45:37.457Z,1003.89
2022-11-02T06:46:37.456Z,1003.95
2022-11-02T06:47:37.426Z,1003.94
2022-11-02T06:48:37.446Z,1003.93
2022-11-02T06:49:37.418Z,1003.99
2022-11-02T06:50:37.397Z,1004.04
2022-11-02T06:51:37.384Z,1004.08
2022-11-02T06:52:37.386Z,1003.99
2022-11-02T06:53:37.364Z,1004.02
2022-11-02T06:54:37.374Z,1004.11
2022-11-02T06:55:37.337Z,1004.03
2022-11-02T06:56:37.326Z,1004.06
2022-11-02T06:57:37.315Z,1004.07
2022-11-02T06:58:37.306Z,1004.12
2022-11-02T06:59:37.315Z,1004.07
2022-11-02T07:00:37.340Z,1004.09
2022-11-02T07:01:37.440Z,1004.12
2022-11-02T07:02:37.306Z,1004.13
2022-11-02T07:03:37.248Z,1004.16
2022-11-02T07:04:37.237Z,1004.14
2022-11-02T07:05:37.460Z,1004.18
2022-11-02T07:06:37.217Z,1004.14
2022-11-02T07:07:37.196Z,1004.18
2022-11-02T07:08:37.195Z,1004.16
2022-11-02T07:09:37.177Z,1004.26
2022-11-02T07:10:37.167Z,1004.20
2022-11-02T07:11:37.176Z,1004.26
2022-11-02T07:12:37.145Z,1004.25
2022-11-02T07:13:37.143Z,1004.12
2022-11-02T07:14:37.126Z,1004.20
2022-11-02T07:15:37.118Z,1004.21
2022-11-02T07:16:37.097Z,1004.15
2022-11-02T07:17:37.097Z,1004.18
2022-11-02T07:18:37.076Z,1004.23
2022-11-02T07:19:37.077Z,1004.25
2022-11-02T07:20:37.055Z,1004.25
2022-11-02T07:21:37.037Z,1004.30
2022-11-02T07:22:40.484Z,1004.29
2022-11-02T07:23:37.017Z,1004.28
2022-11-02T07:24:37.007Z,1004.29
2022-11-02T07:25:37.009Z,1004.28
2022-11-02T07:26:36.977Z,1004.26
2022-11-02T07:27:36.967Z,1004.30
2022-11-02T07:28:36.987Z,1004.29
2022-11-02T07:29:36.948Z,1004.31
2022-11-02T07:30:36.948Z,1004.30
2022-11-02T07:31:36.925Z,1004.36
2022-11-02T07:32:36.917Z,1004.30
2022-11-02T07:33:36.904Z,1004.35
2022-11-02T07:34:36.915Z,1004.40
2022-11-02T07:35:36.877Z,1004.36
2022-11-02T07:36:36.866Z,1004.32
2022-11-02T07:37:36.858Z,1004.41
2022-11-02T07:38:36.851Z,1004.40
2022-11-02T07:39:36.857Z,1004.41
2022-11-02T07:40:36.838Z,1004.41
2022-11-02T07:41:36.807Z,1004.47
2022-11-02T07:42:36.808Z,1004.38
2022-11-02T07:43:39.943Z,1004.46
2022-11-02T07:44:37.806Z,1004.38
2022-11-02T07:45:36.769Z,1004.38
2022-11-02T07:46:36.758Z,1004.44
2022-11-02T07:47:36.747Z,1004.35
2022-11-02T07:48:36.736Z,1004.43
2022-11-02T07:49:36.718Z,1004.40
2022-11-02T07:50:36.738Z,1004.40
2022-11-02T07:51:36.701Z,1004.43
2022-11-02T07:52:36.689Z,1004.41
2022-11-02T07:53:36.676Z,1004.33
2022-11-02T07:54:39.548Z,1004.38
2022-11-02T07:55:37.676Z,1004.35
2022-11-02T07:56:36.695Z,1004.35
2022-11-02T07:57:36.628Z,1004.38
2022-11-02T07:58:36.618Z,1004.45
2022-11-02T07:59:36.613Z,1004.40
2022-11-02T08:00:36.599Z,1004.39
2022-11-02T08:01:36.645Z,1004.42
2022-11-02T08:02:36.602Z,1004.48
2022-11-02T08:03:36.560Z,1004.51
2022-11-02T08:04:39.458Z,1004.47
2022-11-02T08:05:37.542Z,1004.54
2022-11-02T08:06:36.527Z,1004.52
2022-11-02T08:07:36.529Z,1004.49
2022-11-02T08:08:36.510Z,1004.53
2022-11-02T08:09:36.489Z,1004.56
2022-11-02T08:10:38.999Z,1004.55
2022-11-02T08:11:36.467Z,1004.62
2022-11-02T08:12:36.490Z,1004.63
2022-11-02T08:13:36.439Z,1004.62
2022-11-02T08:14:36.429Z,1004.64
2022-11-02T08:15:36.420Z,1004.62
2022-11-02T08:16:36.411Z,1004.59
2022-11-02T08:17:36.400Z,1004.52
2022-11-02T08:18:36.409Z,1004.55
2022-11-02T08:19:36.370Z,1004.47
2022-11-02T08:20:36.370Z,1004.64
2022-11-02T08:21:36.350Z,1004.53
2022-11-02T08:22:36.350Z,1004.50
2022-11-02T08:23:36.333Z,1004.55
2022-11-02T08:24:36.340Z,1004.49
2022-11-02T08:25:36.310Z,1004.59
2022-11-02T08:26:37.742Z,1004.62
2022-11-02T08:27:36.290Z,1004.66
2022-11-02T08:28:36.280Z,1004.60
2022-11-02T08:29:36.292Z,1004.62
2022-11-02T08:30:36.254Z,1004.60
2022-11-02T08:31:36.242Z,1004.63
2022-11-02T08:32:36.232Z,1004.63
2022-11-02T08:33:36.221Z,1004.71
2022-11-02T08:34:36.201Z,1004.73
2022-11-02T08:35:36.270Z,1004.70
2022-11-02T08:36:36.182Z,1004.61
2022-11-02T08:37:36.171Z,1004.55
2022-11-02T08:38:36.161Z,1004.63
2022-11-02T08:39:36.144Z,1004.48
2022-11-02T08:40:36.132Z,1004.59
2022-11-02T08:41:36.162Z,1004.49
2022-11-02T08:42:36.121Z,1004.65
2022-11-02T08:43:36.100Z,1004.71
2022-11-02T08:44:40.010Z,1004.76
2022-11-02T08:46:08.573Z,1004.75
2022-11-02T08:46:37.113Z,1004.71
2022-11-02T08:47:36.052Z,1004.71
2022-11-02T08:48:36.103Z,1004.63
2022-11-02T08:49:36.065Z,1004.62
2022-11-02T08:50:36.023Z,1004.57
2022-11-02T08:51:36.014Z,1004.54
2022-11-02T08:52:40.396Z,1004.55
2022-11-02T08:53:35.993Z,1004.66
2022-11-02T08:54:35.973Z,1004.64
2022-11-02T08:55:35.980Z,1004.58
2022-11-02T08:56:35.963Z,1004.66
2022-11-02T08:57:35.974Z,1004.68
2022-11-02T08:58:35.933Z,1004.70
2022-11-02T08:59:35.914Z,1004.67
2022-11-02T09:00:35.918Z,1004.61
2022-11-02T09:01:35.924Z,1004.71
2022-11-02T09:02:35.958Z,1004.64
2022-11-02T09:03:35.892Z,1004.55
2022-11-02T09:04:35.865Z,1004.56
2022-11-02T09:05:35.844Z,1004.59
2022-11-02T09:06:35.834Z,1004.65
2022-11-02T09:07:35.822Z,1004.66
2022-11-02T09:08:35.822Z,1004.73
2022-11-02T09:09:35.815Z,1004.68
2022-11-02T09:10:35.791Z,1004.64
2022-11-02T09:11:35.778Z,1004.69
2022-11-02T09:12:35.774Z,1004.72
2022-11-02T09:13:35.828Z,1004.65
2022-11-02T09:14:35.765Z,1004.67
2022-11-02T09:15:35.736Z,1004.63
2022-11-02T09:16:41.052Z,1004.64
2022-11-02T09:17:36.710Z,1004.61
2022-11-02T09:18:35.707Z,1004.65
2022-11-02T09:19:35.694Z,1004.60
2022-11-02T09:20:35.917Z,1004.64
2022-11-02T09:21:35.668Z,1004.69
2022-11-02T09:22:35.655Z,1004.69
2022-11-02T09:23:35.636Z,1004.72
2022-11-02T09:24:35.635Z,1004.68
2022-11-02T09:25:35.637Z,1004.74
2022-11-02T09:26:35.620Z,1004.75
2022-11-02T09:27:35.596Z,1004.75
2022-11-02T09:28:35.598Z,1004.78
2022-11-02T09:29:35.576Z,1004.75
2022-11-02T09:30:35.568Z,1004.80
2022-11-02T09:31:35.577Z,1004.80
2022-11-02T09:32:35.548Z,1004.79
2022-11-02T09:33:35.548Z,1004.83
2022-11-02T09:34:35.518Z,1004.85
2022-11-02T09:35:35.505Z,1004.84
2022-11-02T09:36:35.499Z,1004.92
2022-11-02T09:37:35.526Z,1004.95
2022-11-02T09:38:35.476Z,1004.89
2022-11-02T09:39:35.459Z,1004.93
2022-11-02T09:40:35.450Z,1004.96
2022-11-02T09:41:35.438Z,1005.02
2022-11-02T09:42:35.430Z,1004.88
2022-11-02T09:43:35.438Z,1004.99
2022-11-02T09:44:35.408Z,1004.94
2022-11-02T09:45:35.389Z,1004.97
2022-11-02T09:46:37.295Z,1004.97
2022-11-02T09:48:15.394Z,1005.00
2022-11-02T09:48:36.670Z,1004.97
2022-11-02T09:49:35.348Z,1004.98
2022-11-02T09:50:35.370Z,1004.93
2022-11-02T09:51:35.330Z,1004.94
2022-11-02T09:52:35.320Z,1004.83
2022-11-02T09:53:35.310Z,1005.03
2022-11-02T09:54:35.320Z,1005.01
2022-11-02T09:55:35.282Z,1004.97
2022-11-02T09:56:35.281Z,1004.94
2022-11-02T09:57:35.269Z,1005.01
2022-11-02T09:58:35.258Z,1005.00
2022-11-02T09:59:35.253Z,1005.10
2022-11-02T10:00:35.252Z,1005.13
2022-11-02T10:01:35.309Z,1005.20
2022-11-02T10:02:35.275Z,1005.15
2022-11-02T10:03:35.190Z,1005.10
2022-11-02T10:04:35.202Z,1005.12
2022-11-02T10:05:35.190Z,1005.14
2022-11-02T10:06:35.175Z,1005.17
2022-11-02T10:07:35.162Z,1005.13
2022-11-02T10:08:35.141Z,1005.16
2022-11-02T10:09:35.121Z,1005.19
2022-11-02T10:10:35.113Z,1005.12
2022-11-02T10:11:35.192Z,1005.10
2022-11-02T10:12:35.091Z,1005.12
2022-11-02T10:13:35.140Z,1005.19
2022-11-02T10:14:35.114Z,1005.24
2022-11-02T10:15:35.059Z,1005.19
2022-11-02T10:16:35.042Z,1005.19
2022-11-02T10:17:35.063Z,1005.35
2022-11-02T10:18:35.023Z,1005.34
2022-11-02T10:19:35.010Z,1005.28
2022-11-02T10:20:35.001Z,1005.29
2022-11-02T10:21:34.981Z,1005.35
2022-11-02T10:22:35.005Z,1005.36
2022-11-02T10:23:34.963Z,1005.33
2022-11-02T10:24:34.960Z,1005.34
2022-11-02T10:25:34.953Z,1005.20
2022-11-02T10:26:34.934Z,1005.42
2022-11-02T10:27:34.993Z,1005.31
2022-11-02T10:28:34.933Z,1005.31
2022-11-02T10:29:34.907Z,1005.30
2022-11-02T10:30:34.893Z,1005.29
2022-11-02T10:31:34.962Z,1005.35
2022-11-02T10:32:34.925Z,1005.41
2022-11-02T10:33:34.872Z,1005.33
2022-11-02T10:34:34.876Z,1005.33
2022-11-02T10:35:45.740Z,1005.41
2022-11-02T10:36:35.838Z,1005.44
2022-11-02T10:37:34.817Z,1005.37
2022-11-02T10:38:34.805Z,1005.43
2022-11-02T10:39:34.835Z,1005.48
2022-11-02T10:40:34.792Z,1005.47
2022-11-02T10:41:34.788Z,1005.50
2022-11-02T10:42:34.752Z,1005.45
2022-11-02T10:43:34.748Z,1005.41
2022-11-02T10:44:34.769Z,1005.47
2022-11-02T10:45:34.765Z,1005.49
2022-11-02T10:46:34.694Z,1005.45
2022-11-02T10:47:34.715Z,1005.53
2022-11-02T10:48:34.676Z,1005.60
2022-11-02T10:49:34.674Z,1005.60
2022-11-02T10:50:34.732Z,1005.55
2022-11-02T10:51:34.704Z,1005.51
2022-11-02T10:52:34.642Z,1005.52
2022-11-02T10:53:41.245Z,1005.43
2022-11-02T10:54:35.611Z,1005.43
2022-11-02T10:55:34.695Z,1005.41
2022-11-02T10:56:34.631Z,1005.37
2022-11-02T10:57:34.574Z,1005.48
2022-11-02T10:58:34.557Z,1005.40
2022-11-02T10:59:34.587Z,1005.47
2022-11-02T11:00:34.607Z,1005.53
2022-11-02T11:01:34.630Z,1005.54
2022-11-02T11:02:34.535Z,1005.53
2022-11-02T11:03:34.515Z,1005.53
2022-11-02T11:04:34.498Z,1005.49
2022-11-02T11:05:34.598Z,1005.51
2022-11-02T11:06:34.471Z,1005.55
2022-11-02T11:07:34.477Z,1005.47
2022-11-02T11:08:34.485Z,1005.46
2022-11-02T11:09:34.449Z,1005.40
2022-11-02T11:10:34.428Z,1005.39
2022-11-02T11:11:34.420Z,1005.38
2022-11-02T11:12:34.412Z,1005.31
2022-11-02T11:15:48.825Z,1005.33
2022-11-02T11:16:35.358Z,1005.33
2022-11-02T11:20:34.351Z,1005.28
2022-11-02T11:21:34.317Z,1005.31
2022-11-02T11:22:34.291Z,1005.33
2022-11-02T11:23:34.292Z,1005.22
2022-11-02T11:24:34.314Z,1005.23
2022-11-02T11:25:34.293Z,1005.29
2022-11-02T11:26:34.284Z,1005.24
2022-11-02T11:27:34.242Z,1005.31
2022-11-02T11:28:34.230Z,1005.34
2022-11-02T11:29:34.217Z,1005.36
2022-11-02T11:30:58.255Z,1005.34
2022-11-02T11:31:35.222Z,1005.39
2022-11-02T11:32:34.199Z,1005.35
2022-11-02T11:33:34.184Z,1005.40
2022-11-02T11:34:34.159Z,1005.36
2022-11-02T11:35:34.150Z,1005.38
2022-11-02T11:36:34.139Z,1005.33
2022-11-02T11:37:41.199Z,1005.36
2022-11-02T11:38:34.111Z,1005.34
2022-11-02T11:39:34.108Z,1005.22
2022-11-02T11:40:34.091Z,1005.24
2022-11-02T11:41:34.090Z,1005.21
2022-11-02T11:42:34.080Z,1005.28
2022-11-02T11:43:34.087Z,1005.32
2022-11-02T11:44:34.041Z,1005.29
2022-11-02T11:45:34.116Z,1005.29
2022-11-02T11:46:34.020Z,1005.20
2022-11-02T11:47:34.021Z,1005.24
2022-11-02T11:48:34.035Z,1005.25
2022-11-02T11:50:07.347Z,1005.21
2022-11-02T11:50:34.980Z,1005.25
2022-11-02T11:51:33.971Z,1005.26
2022-11-02T11:52:33.994Z,1005.21
2022-11-02T11:53:33.951Z,1005.26
2022-11-02T11:54:33.951Z,1005.28
2022-11-02T11:55:33.931Z,1005.20
2022-11-02T11:56:33.912Z,1005.18
2022-11-02T11:57:34.086Z,1005.22
2022-11-02T11:58:33.892Z,1005.20
2022-11-02T11:59:33.902Z,1005.26
2022-11-02T12:00:33.871Z,1005.25
2022-11-02T12:01:33.960Z,1005.18
2022-11-02T12:02:37.893Z,1005.26
2022-11-02T12:03:34.842Z,1005.21
2022-11-02T12:04:33.822Z,1005.15
2022-11-02T12:05:33.832Z,1005.24
2022-11-02T12:06:33.817Z,1005.13
2022-11-02T12:07:33.803Z,1005.20
2022-11-02T12:08:33.784Z,1005.15
2022-11-02T12:09:33.772Z,1005.14
2022-11-02T12:10:33.783Z,1005.12
2022-11-02T12:11:33.754Z,1005.12
2022-11-02T12:12:33.743Z,1005.07